sensor_id;sensor_type;location;lat;lon;timestamp;temperature;humidity
44990;DHT22;30723;51.206;3.326;2024-03-08T00:00:43;5.20;99.90
44990;DHT22;30723;51.206;3.326;2024-03-08T00:03:09;5.20;99.90
44990;DHT22;30723;51.206;3.326;2024-03-08T00:05:36;5.20;99.90
44990;DHT22;30723;51.206;3.326;2024-03-08T00:08:05;5.20;99.90
44990;DHT22;30723;51.206;3.326;2024-03-08T00:10:32;5.10;99.90
44990;DHT22;30723;51.206;3.326;2024-03-08T00:12:57;5.10;99.90
44990;DHT22;30723;51.206;3.326;2024-03-08T00:15:23;5.10;99.90
44990;DHT22;30723;51.206;3.326;2024-03-08T00:17:49;5.10;99.90
44990;DHT22;30723;51.206;3.326;2024-03-08T00:20:16;5.10;99.90
44990;DHT22;30723;51.206;3.326;2024-03-08T00:22:43;5.00;99.90
44990;DHT22;30723;51.206;3.326;2024-03-08T00:25:09;5.00;99.90
44990;DHT22;30723;51.206;3.326;2024-03-08T00:27:35;4.90;99.90
44990;DHT22;30723;51.206;3.326;2024-03-08T00:30:02;4.90;99.90
44990;DHT22;30723;51.206;3.326;2024-03-08T00:32:28;4.90;99.90
44990;DHT22;30723;51.206;3.326;2024-03-08T00:34:54;4.90;99.90
44990;DHT22;30723;51.206;3.326;2024-03-08T00:37:20;4.90;99.90
44990;DHT22;30723;51.206;3.326;2024-03-08T00:39:52;4.90;99.90
44990;DHT22;30723;51.206;3.326;2024-03-08T00:42:19;4.80;99.90
44990;DHT22;30723;51.206;3.326;2024-03-08T00:44:46;4.80;99.90
44990;DHT22;30723;51.206;3.326;2024-03-08T00:47:12;4.80;99.90
44990;DHT22;30723;51.206;3.326;2024-03-08T00:49:38;4.80;99.90
44990;DHT22;30723;51.206;3.326;2024-03-08T00:52:05;4.80;99.90
44990;DHT22;30723;51.206;3.326;2024-03-08T00:54:34;4.80;99.90
44990;DHT22;30723;51.206;3.326;2024-03-08T00:57:04;4.80;99.90
44990;DHT22;30723;51.206;3.326;2024-03-08T00:59:30;4.80;99.90
44990;DHT22;30723;51.206;3.326;2024-03-08T01:01:58;4.80;99.90
44990;DHT22;30723;51.206;3.326;2024-03-08T01:04:25;4.70;99.90
44990;DHT22;30723;51.206;3.326;2024-03-08T01:06:55;4.70;99.90
44990;DHT22;30723;51.206;3.326;2024-03-08T01:09:22;4.70;99.90
44990;DHT22;30723;51.206;3.326;2024-03-08T01:11:48;4.70;99.90
44990;DHT22;30723;51.206;3.326;2024-03-08T01:14:15;4.70;99.90
44990;DHT22;30723;51.206;3.326;2024-03-08T01:16:40;4.70;99.90
44990;DHT22;30723;51.206;3.326;2024-03-08T01:19:06;4.70;99.90
44990;DHT22;30723;51.206;3.326;2024-03-08T01:21:32;4.70;99.90
44990;DHT22;30723;51.206;3.326;2024-03-08T01:23:58;4.70;99.90
44990;DHT22;30723;51.206;3.326;2024-03-08T01:26:24;4.60;99.90
44990;DHT22;30723;51.206;3.326;2024-03-08T01:28:50;4.60;99.90
44990;DHT22;30723;51.206;3.326;2024-03-08T01:31:16;4.60;99.90
44990;DHT22;30723;51.206;3.326;2024-03-08T01:33:42;4.60;99.90
44990;DHT22;30723;51.206;3.326;2024-03-08T01:36:07;4.60;99.90
44990;DHT22;30723;51.206;3.326;2024-03-08T01:38:33;4.60;99.90
44990;DHT22;30723;51.206;3.326;2024-03-08T01:40:59;4.60;99.90
44990;DHT22;30723;51.206;3.326;2024-03-08T01:43:27;4.60;99.90
44990;DHT22;30723;51.206;3.326;2024-03-08T01:45:58;4.50;99.90
44990;DHT22;30723;51.206;3.326;2024-03-08T01:48:28;4.50;99.90
44990;DHT22;30723;51.206;3.326;2024-03-08T01:50:58;4.50;99.90
44990;DHT22;30723;51.206;3.326;2024-03-08T01:53:24;4.50;99.90
44990;DHT22;30723;51.206;3.326;2024-03-08T01:55:55;4.40;99.90
44990;DHT22;30723;51.206;3.326;2024-03-08T01:58:22;4.40;99.90
44990;DHT22;30723;51.206;3.326;2024-03-08T02:00:49;4.40;99.90
44990;DHT22;30723;51.206;3.326;2024-03-08T02:03:16;4.40;99.90
44990;DHT22;30723;51.206;3.326;2024-03-08T02:05:42;4.40;99.90
44990;DHT22;30723;51.206;3.326;2024-03-08T02:08:09;4.30;99.90
44990;DHT22;30723;51.206;3.326;2024-03-08T02:10:46;4.30;99.90
44990;DHT22;30723;51.206;3.326;2024-03-08T02:13:12;4.30;99.90
44990;DHT22;30723;51.206;3.326;2024-03-08T02:16:04;4.30;99.90
44990;DHT22;30723;51.206;3.326;2024-03-08T02:18:33;4.30;99.90
44990;DHT22;30723;51.206;3.326;2024-03-08T02:21:04;4.30;99.90
44990;DHT22;30723;51.206;3.326;2024-03-08T02:23:32;4.20;99.90
44990;DHT22;30723;51.206;3.326;2024-03-08T02:25:58;4.10;99.90
44990;DHT22;30723;51.206;3.326;2024-03-08T02:28:24;4.20;99.90
44990;DHT22;30723;51.206;3.326;2024-03-08T02:30:54;4.20;99.90
44990;DHT22;30723;51.206;3.326;2024-03-08T02:33:22;4.20;99.90
44990;DHT22;30723;51.206;3.326;2024-03-08T02:35:49;4.10;99.90
44990;DHT22;30723;51.206;3.326;2024-03-08T02:38:17;4.10;99.90
44990;DHT22;30723;51.206;3.326;2024-03-08T02:40:48;4.10;99.90
44990;DHT22;30723;51.206;3.326;2024-03-08T02:43:15;4.10;99.90
44990;DHT22;30723;51.206;3.326;2024-03-08T02:45:41;4.00;99.90
44990;DHT22;30723;51.206;3.326;2024-03-08T02:48:08;4.00;99.90
44990;DHT22;30723;51.206;3.326;2024-03-08T02:50:34;4.00;99.90
44990;DHT22;30723;51.206;3.326;2024-03-08T02:53:04;4.00;99.90
44990;DHT22;30723;51.206;3.326;2024-03-08T02:55:30;4.10;99.90
44990;DHT22;30723;51.206;3.326;2024-03-08T02:57:56;4.00;99.90
44990;DHT22;30723;51.206;3.326;2024-03-08T03:00:22;4.00;99.90
44990;DHT22;30723;51.206;3.326;2024-03-08T03:02:52;4.00;99.90
44990;DHT22;30723;51.206;3.326;2024-03-08T03:05:20;3.90;99.90
44990;DHT22;30723;51.206;3.326;2024-03-08T03:07:46;3.90;99.90
44990;DHT22;30723;51.206;3.326;2024-03-08T03:10:12;3.90;99.90
44990;DHT22;30723;51.206;3.326;2024-03-08T03:12:38;3.90;99.90
44990;DHT22;30723;51.206;3.326;2024-03-08T03:15:04;3.90;99.90
44990;DHT22;30723;51.206;3.326;2024-03-08T03:17:32;3.90;99.90
44990;DHT22;30723;51.206;3.326;2024-03-08T03:19:58;3.90;99.90
44990;DHT22;30723;51.206;3.326;2024-03-08T03:22:23;3.80;99.90
44990;DHT22;30723;51.206;3.326;2024-03-08T03:24:51;3.80;99.90
44990;DHT22;30723;51.206;3.326;2024-03-08T03:27:17;3.80;99.90
44990;DHT22;30723;51.206;3.326;2024-03-08T03:29:44;3.80;99.90
44990;DHT22;30723;51.206;3.326;2024-03-08T03:32:13;3.90;99.90
44990;DHT22;30723;51.206;3.326;2024-03-08T03:34:39;3.90;99.90
44990;DHT22;30723;51.206;3.326;2024-03-08T03:37:06;3.90;99.90
44990;DHT22;30723;51.206;3.326;2024-03-08T03:39:33;3.80;99.90
44990;DHT22;30723;51.206;3.326;2024-03-08T03:42:02;3.80;99.90
44990;DHT22;30723;51.206;3.326;2024-03-08T03:44:28;3.80;99.90
44990;DHT22;30723;51.206;3.326;2024-03-08T03:46:54;3.80;99.90
44990;DHT22;30723;51.206;3.326;2024-03-08T03:49:20;3.70;99.90
44990;DHT22;30723;51.206;3.326;2024-03-08T03:51:46;3.70;99.90
44990;DHT22;30723;51.206;3.326;2024-03-08T03:54:12;3.70;99.90
44990;DHT22;30723;51.206;3.326;2024-03-08T03:56:38;3.70;99.90
44990;DHT22;30723;51.206;3.326;2024-03-08T03:59:06;3.70;99.90
44990;DHT22;30723;51.206;3.326;2024-03-08T04:01:33;3.70;99.90
44990;DHT22;30723;51.206;3.326;2024-03-08T04:03:59;3.60;99.90
44990;DHT22;30723;51.206;3.326;2024-03-08T04:06:25;3.60;99.90
44990;DHT22;30723;51.206;3.326;2024-03-08T04:08:51;3.50;99.90
44990;DHT22;30723;51.206;3.326;2024-03-08T04:11:16;3.60;99.90
44990;DHT22;30723;51.206;3.326;2024-03-08T04:13:43;3.60;99.90
44990;DHT22;30723;51.206;3.326;2024-03-08T04:16:09;3.60;99.90
44990;DHT22;30723;51.206;3.326;2024-03-08T04:18:37;3.50;99.90
44990;DHT22;30723;51.206;3.326;2024-03-08T04:21:07;3.50;99.90
44990;DHT22;30723;51.206;3.326;2024-03-08T04:23:34;3.60;99.90
44990;DHT22;30723;51.206;3.326;2024-03-08T04:26:02;3.60;99.90
44990;DHT22;30723;51.206;3.326;2024-03-08T04:28:29;3.50;99.90
44990;DHT22;30723;51.206;3.326;2024-03-08T04:30:57;3.40;99.90
44990;DHT22;30723;51.206;3.326;2024-03-08T04:33:22;3.50;99.90
44990;DHT22;30723;51.206;3.326;2024-03-08T04:35:49;3.50;99.90
44990;DHT22;30723;51.206;3.326;2024-03-08T04:38:15;3.50;99.90
44990;DHT22;30723;51.206;3.326;2024-03-08T04:40:41;3.50;99.90
44990;DHT22;30723;51.206;3.326;2024-03-08T04:43:07;3.50;99.90
44990;DHT22;30723;51.206;3.326;2024-03-08T04:45:34;3.50;99.90
44990;DHT22;30723;51.206;3.326;2024-03-08T04:48:00;3.50;99.90
44990;DHT22;30723;51.206;3.326;2024-03-08T04:50:25;3.40;99.90
44990;DHT22;30723;51.206;3.326;2024-03-08T04:52:55;3.40;99.90
44990;DHT22;30723;51.206;3.326;2024-03-08T04:55:20;3.40;99.90
44990;DHT22;30723;51.206;3.326;2024-03-08T04:57:47;3.40;99.90
44990;DHT22;30723;51.206;3.326;2024-03-08T05:00:14;3.40;99.90
44990;DHT22;30723;51.206;3.326;2024-03-08T05:02:41;3.40;99.90
44990;DHT22;30723;51.206;3.326;2024-03-08T05:05:09;3.40;99.90
44990;DHT22;30723;51.206;3.326;2024-03-08T05:07:38;3.40;99.90
44990;DHT22;30723;51.206;3.326;2024-03-08T05:10:06;3.40;99.90
44990;DHT22;30723;51.206;3.326;2024-03-08T05:12:33;3.30;99.90
44990;DHT22;30723;51.206;3.326;2024-03-08T05:15:01;3.30;99.90
44990;DHT22;30723;51.206;3.326;2024-03-08T05:17:27;3.30;99.90
44990;DHT22;30723;51.206;3.326;2024-03-08T05:19:53;3.30;99.90
44990;DHT22;30723;51.206;3.326;2024-03-08T05:22:19;3.30;99.90
44990;DHT22;30723;51.206;3.326;2024-03-08T05:24:44;3.30;99.90
44990;DHT22;30723;51.206;3.326;2024-03-08T05:27:10;3.20;99.90
44990;DHT22;30723;51.206;3.326;2024-03-08T05:29:36;3.30;99.90
44990;DHT22;30723;51.206;3.326;2024-03-08T05:32:04;3.20;99.90
44990;DHT22;30723;51.206;3.326;2024-03-08T05:34:30;3.30;99.90
44990;DHT22;30723;51.206;3.326;2024-03-08T05:36:56;3.30;99.90
44990;DHT22;30723;51.206;3.326;2024-03-08T05:39:23;3.30;99.90
44990;DHT22;30723;51.206;3.326;2024-03-08T05:41:49;3.20;99.90
44990;DHT22;30723;51.206;3.326;2024-03-08T05:44:16;3.20;99.90
44990;DHT22;30723;51.206;3.326;2024-03-08T05:46:42;3.20;99.90
44990;DHT22;30723;51.206;3.326;2024-03-08T05:49:08;3.20;99.90
44990;DHT22;30723;51.206;3.326;2024-03-08T05:51:36;3.30;99.90
44990;DHT22;30723;51.206;3.326;2024-03-08T05:54:11;3.20;99.90
44990;DHT22;30723;51.206;3.326;2024-03-08T05:56:38;3.20;99.90
44990;DHT22;30723;51.206;3.326;2024-03-08T05:59:04;3.20;99.90
44990;DHT22;30723;51.206;3.326;2024-03-08T06:01:30;3.20;99.90
44990;DHT22;30723;51.206;3.326;2024-03-08T06:04:02;3.20;99.90
44990;DHT22;30723;51.206;3.326;2024-03-08T06:06:28;3.10;99.90
44990;DHT22;30723;51.206;3.326;2024-03-08T06:08:54;3.10;99.90
44990;DHT22;30723;51.206;3.326;2024-03-08T06:11:22;3.10;99.90
44990;DHT22;30723;51.206;3.326;2024-03-08T06:13:48;3.10;99.90
44990;DHT22;30723;51.206;3.326;2024-03-08T06:16:15;3.00;99.90
44990;DHT22;30723;51.206;3.326;2024-03-08T06:18:41;3.00;99.90
44990;DHT22;30723;51.206;3.326;2024-03-08T06:21:07;3.00;99.90
44990;DHT22;30723;51.206;3.326;2024-03-08T06:23:38;3.00;99.90
44990;DHT22;30723;51.206;3.326;2024-03-08T06:26:04;3.00;99.90
44990;DHT22;30723;51.206;3.326;2024-03-08T06:28:31;3.00;99.90
44990;DHT22;30723;51.206;3.326;2024-03-08T06:30:58;3.00;99.90
44990;DHT22;30723;51.206;3.326;2024-03-08T06:33:27;3.00;99.90
44990;DHT22;30723;51.206;3.326;2024-03-08T06:35:54;2.90;99.90
44990;DHT22;30723;51.206;3.326;2024-03-08T06:38:26;2.90;99.90
44990;DHT22;30723;51.206;3.326;2024-03-08T06:40:52;2.90;99.90
44990;DHT22;30723;51.206;3.326;2024-03-08T06:43:19;2.90;99.90
44990;DHT22;30723;51.206;3.326;2024-03-08T06:45:45;2.90;99.90
44990;DHT22;30723;51.206;3.326;2024-03-08T06:48:19;2.90;99.90
44990;DHT22;30723;51.206;3.326;2024-03-08T06:50:46;2.90;99.90
44990;DHT22;30723;51.206;3.326;2024-03-08T06:53:13;3.00;99.90
44990;DHT22;30723;51.206;3.326;2024-03-08T06:55:39;3.00;99.90
44990;DHT22;30723;51.206;3.326;2024-03-08T06:58:05;3.00;99.90
44990;DHT22;30723;51.206;3.326;2024-03-08T07:00:36;3.00;99.90
44990;DHT22;30723;51.206;3.326;2024-03-08T07:03:02;3.00;99.90
44990;DHT22;30723;51.206;3.326;2024-03-08T07:05:30;3.00;99.90
44990;DHT22;30723;51.206;3.326;2024-03-08T07:07:58;3.00;99.90
44990;DHT22;30723;51.206;3.326;2024-03-08T07:10:24;3.10;99.90
44990;DHT22;30723;51.206;3.326;2024-03-08T07:12:54;3.10;99.90
44990;DHT22;30723;51.206;3.326;2024-03-08T07:15:20;3.10;99.90
44990;DHT22;30723;51.206;3.326;2024-03-08T07:17:46;3.20;99.90
44990;DHT22;30723;51.206;3.326;2024-03-08T07:20:13;3.20;99.90
44990;DHT22;30723;51.206;3.326;2024-03-08T07:22:41;3.20;99.90
44990;DHT22;30723;51.206;3.326;2024-03-08T07:25:07;3.20;99.90
44990;DHT22;30723;51.206;3.326;2024-03-08T07:27:33;3.40;99.90
44990;DHT22;30723;51.206;3.326;2024-03-08T07:30:03;3.40;99.90
44990;DHT22;30723;51.206;3.326;2024-03-08T07:32:29;3.40;99.90
44990;DHT22;30723;51.206;3.326;2024-03-08T07:34:58;3.50;99.90
44990;DHT22;30723;51.206;3.326;2024-03-08T07:37:24;3.50;99.90
44990;DHT22;30723;51.206;3.326;2024-03-08T07:39:50;3.50;99.90
44990;DHT22;30723;51.206;3.326;2024-03-08T07:42:16;3.50;99.90
44990;DHT22;30723;51.206;3.326;2024-03-08T07:44:42;3.50;99.90
44990;DHT22;30723;51.206;3.326;2024-03-08T07:47:08;3.60;99.90
44990;DHT22;30723;51.206;3.326;2024-03-08T07:49:37;3.60;99.90
44990;DHT22;30723;51.206;3.326;2024-03-08T07:52:04;3.70;99.90
44990;DHT22;30723;51.206;3.326;2024-03-08T07:54:30;3.80;99.90
44990;DHT22;30723;51.206;3.326;2024-03-08T07:56:56;3.90;99.90
44990;DHT22;30723;51.206;3.326;2024-03-08T07:59:22;3.90;99.90
44990;DHT22;30723;51.206;3.326;2024-03-08T08:01:48;4.00;99.90
44990;DHT22;30723;51.206;3.326;2024-03-08T08:04:14;4.10;99.90
44990;DHT22;30723;51.206;3.326;2024-03-08T08:06:43;4.20;99.90
44990;DHT22;30723;51.206;3.326;2024-03-08T08:09:09;4.20;99.90
44990;DHT22;30723;51.206;3.326;2024-03-08T08:11:41;4.20;99.90
44990;DHT22;30723;51.206;3.326;2024-03-08T08:14:10;4.20;99.90
44990;DHT22;30723;51.206;3.326;2024-03-08T08:16:36;4.20;99.90
44990;DHT22;30723;51.206;3.326;2024-03-08T08:19:03;4.30;99.90
44990;DHT22;30723;51.206;3.326;2024-03-08T08:21:35;4.30;99.90
44990;DHT22;30723;51.206;3.326;2024-03-08T08:24:04;4.40;99.90
44990;DHT22;30723;51.206;3.326;2024-03-08T08:26:30;4.50;99.90
44990;DHT22;30723;51.206;3.326;2024-03-08T08:28:56;4.50;99.90
44990;DHT22;30723;51.206;3.326;2024-03-08T08:31:22;4.60;99.90
44990;DHT22;30723;51.206;3.326;2024-03-08T08:33:48;4.70;99.90
44990;DHT22;30723;51.206;3.326;2024-03-08T08:36:14;4.70;99.90
44990;DHT22;30723;51.206;3.326;2024-03-08T08:38:40;4.80;99.90
44990;DHT22;30723;51.206;3.326;2024-03-08T08:41:09;4.90;99.90
44990;DHT22;30723;51.206;3.326;2024-03-08T08:43:36;5.00;99.90
44990;DHT22;30723;51.206;3.326;2024-03-08T08:46:02;5.00;99.90
44990;DHT22;30723;51.206;3.326;2024-03-08T08:48:28;5.10;99.90
44990;DHT22;30723;51.206;3.326;2024-03-08T08:50:56;5.00;99.90
44990;DHT22;30723;51.206;3.326;2024-03-08T08:53:22;5.00;99.90
44990;DHT22;30723;51.206;3.326;2024-03-08T08:55:48;5.20;99.90
44990;DHT22;30723;51.206;3.326;2024-03-08T08:58:14;5.20;99.90
44990;DHT22;30723;51.206;3.326;2024-03-08T09:00:39;5.30;99.90
44990;DHT22;30723;51.206;3.326;2024-03-08T09:03:05;5.30;99.90
44990;DHT22;30723;51.206;3.326;2024-03-08T09:05:32;5.30;99.90
44990;DHT22;30723;51.206;3.326;2024-03-08T09:07:59;5.50;99.90
44990;DHT22;30723;51.206;3.326;2024-03-08T09:10:26;5.60;99.90
44990;DHT22;30723;51.206;3.326;2024-03-08T09:12:53;5.70;99.90
44990;DHT22;30723;51.206;3.326;2024-03-08T09:15:20;5.70;99.90
44990;DHT22;30723;51.206;3.326;2024-03-08T09:17:48;5.70;99.90
44990;DHT22;30723;51.206;3.326;2024-03-08T09:20:14;5.80;99.90
44990;DHT22;30723;51.206;3.326;2024-03-08T09:22:44;6.00;99.90
44990;DHT22;30723;51.206;3.326;2024-03-08T09:25:10;6.20;99.90
44990;DHT22;30723;51.206;3.326;2024-03-08T09:27:36;6.20;99.90
44990;DHT22;30723;51.206;3.326;2024-03-08T09:30:02;6.40;99.90
44990;DHT22;30723;51.206;3.326;2024-03-08T09:32:28;6.40;99.90
44990;DHT22;30723;51.206;3.326;2024-03-08T09:34:53;6.30;99.90
44990;DHT22;30723;51.206;3.326;2024-03-08T09:37:19;6.50;99.90
44990;DHT22;30723;51.206;3.326;2024-03-08T09:39:45;6.70;99.90
44990;DHT22;30723;51.206;3.326;2024-03-08T09:42:11;6.60;99.90
44990;DHT22;30723;51.206;3.326;2024-03-08T09:44:44;6.60;99.90
44990;DHT22;30723;51.206;3.326;2024-03-08T09:47:13;6.80;99.90
44990;DHT22;30723;51.206;3.326;2024-03-08T09:49:40;6.90;99.90
44990;DHT22;30723;51.206;3.326;2024-03-08T09:52:07;6.80;99.90
44990;DHT22;30723;51.206;3.326;2024-03-08T09:54:33;6.80;99.90
44990;DHT22;30723;51.206;3.326;2024-03-08T09:56:59;6.90;99.90
44990;DHT22;30723;51.206;3.326;2024-03-08T09:59:25;7.00;99.90
44990;DHT22;30723;51.206;3.326;2024-03-08T10:01:51;7.10;99.90
44990;DHT22;30723;51.206;3.326;2024-03-08T10:04:24;7.20;99.90
44990;DHT22;30723;51.206;3.326;2024-03-08T10:06:51;7.50;99.90
44990;DHT22;30723;51.206;3.326;2024-03-08T10:09:18;7.80;99.90
44990;DHT22;30723;51.206;3.326;2024-03-08T10:11:48;8.90;99.90
44990;DHT22;30723;51.206;3.326;2024-03-08T10:14:15;10.00;99.90
44990;DHT22;30723;51.206;3.326;2024-03-08T10:16:42;11.70;99.90
44990;DHT22;30723;51.206;3.326;2024-03-08T10:19:07;12.40;99.90
44990;DHT22;30723;51.206;3.326;2024-03-08T10:21:35;12.70;99.90
44990;DHT22;30723;51.206;3.326;2024-03-08T10:24:02;13.20;99.90
44990;DHT22;30723;51.206;3.326;2024-03-08T10:26:28;13.90;99.90
44990;DHT22;30723;51.206;3.326;2024-03-08T10:28:55;14.50;99.90
44990;DHT22;30723;51.206;3.326;2024-03-08T10:31:23;15.00;99.90
44990;DHT22;30723;51.206;3.326;2024-03-08T10:33:49;15.70;99.90
44990;DHT22;30723;51.206;3.326;2024-03-08T10:36:15;15.80;99.90
44990;DHT22;30723;51.206;3.326;2024-03-08T10:38:42;15.50;99.90
44990;DHT22;30723;51.206;3.326;2024-03-08T10:41:15;14.50;99.90
44990;DHT22;30723;51.206;3.326;2024-03-08T10:46:30;13.60;99.90
44990;DHT22;30723;51.206;3.326;2024-03-08T10:49:00;13.50;99.90
44990;DHT22;30723;51.206;3.326;2024-03-08T10:51:30;14.00;99.90
44990;DHT22;30723;51.206;3.326;2024-03-08T10:53:57;14.30;99.90
44990;DHT22;30723;51.206;3.326;2024-03-08T10:56:25;14.60;99.90
44990;DHT22;30723;51.206;3.326;2024-03-08T10:58:54;15.10;99.90
44990;DHT22;30723;51.206;3.326;2024-03-08T11:01:21;16.00;99.90
44990;DHT22;30723;51.206;3.326;2024-03-08T11:03:48;16.10;99.90
44990;DHT22;30723;51.206;3.326;2024-03-08T11:06:41;16.70;99.90
44990;DHT22;30723;51.206;3.326;2024-03-08T11:09:38;16.60;99.90
44990;DHT22;30723;51.206;3.326;2024-03-08T11:14:52;17.00;99.90
44990;DHT22;30723;51.206;3.326;2024-03-08T11:18:10;16.90;99.80
44990;DHT22;30723;51.206;3.326;2024-03-08T11:20:12;17.70;99.60
44990;DHT22;30723;51.206;3.326;2024-03-08T11:22:48;16.90;99.90
44990;DHT22;30723;51.206;3.326;2024-03-08T11:25:35;17.10;98.90
44990;DHT22;30723;51.206;3.326;2024-03-08T11:28:15;17.70;97.90
44990;DHT22;30723;51.206;3.326;2024-03-08T11:33:37;18.10;97.20
44990;DHT22;30723;51.206;3.326;2024-03-08T11:36:13;18.20;95.90
44990;DHT22;30723;51.206;3.326;2024-03-08T11:38:45;17.70;95.10
44990;DHT22;30723;51.206;3.326;2024-03-08T11:41:24;16.70;96.90
44990;DHT22;30723;51.206;3.326;2024-03-08T11:44:02;16.60;98.00
44990;DHT22;30723;51.206;3.326;2024-03-08T11:46:30;16.70;98.20
44990;DHT22;30723;51.206;3.326;2024-03-08T11:48:56;17.60;96.00
44990;DHT22;30723;51.206;3.326;2024-03-08T11:51:23;17.00;97.70
44990;DHT22;30723;51.206;3.326;2024-03-08T11:53:49;17.70;98.00
44990;DHT22;30723;51.206;3.326;2024-03-08T11:56:16;17.50;96.00
44990;DHT22;30723;51.206;3.326;2024-03-08T11:58:45;17.50;96.30
44990;DHT22;30723;51.206;3.326;2024-03-08T12:01:18;17.60;96.90
44990;DHT22;30723;51.206;3.326;2024-03-08T12:03:44;18.00;95.60
44990;DHT22;30723;51.206;3.326;2024-03-08T12:06:17;18.60;93.30
44990;DHT22;30723;51.206;3.326;2024-03-08T12:08:43;18.50;91.80
44990;DHT22;30723;51.206;3.326;2024-03-08T12:11:14;18.70;92.70
44990;DHT22;30723;51.206;3.326;2024-03-08T12:13:41;18.80;92.20
44990;DHT22;30723;51.206;3.326;2024-03-08T12:16:07;19.20;91.30
44990;DHT22;30723;51.206;3.326;2024-03-08T12:18:38;19.30;91.30
44990;DHT22;30723;51.206;3.326;2024-03-08T12:23:35;19.70;91.50
44990;DHT22;30723;51.206;3.326;2024-03-08T12:26:15;20.00;89.40
44990;DHT22;30723;51.206;3.326;2024-03-08T12:28:42;19.70;84.00
44990;DHT22;30723;51.206;3.326;2024-03-08T12:31:12;18.30;90.80
44990;DHT22;30723;51.206;3.326;2024-03-08T12:33:50;18.10;90.40
44990;DHT22;30723;51.206;3.326;2024-03-08T12:36:16;17.80;92.20
44990;DHT22;30723;51.206;3.326;2024-03-08T12:38:48;17.90;91.40
44990;DHT22;30723;51.206;3.326;2024-03-08T12:41:18;18.40;92.20
44990;DHT22;30723;51.206;3.326;2024-03-08T12:43:45;18.20;90.90
44990;DHT22;30723;51.206;3.326;2024-03-08T12:46:17;18.10;93.10
44990;DHT22;30723;51.206;3.326;2024-03-08T12:48:44;18.90;91.80
44990;DHT22;30723;51.206;3.326;2024-03-08T12:51:16;19.20;91.20
44990;DHT22;30723;51.206;3.326;2024-03-08T12:53:44;19.10;90.60
44990;DHT22;30723;51.206;3.326;2024-03-08T12:56:12;18.80;91.10
44990;DHT22;30723;51.206;3.326;2024-03-08T12:58:38;19.70;89.90
44990;DHT22;30723;51.206;3.326;2024-03-08T13:01:04;20.00;87.70
44990;DHT22;30723;51.206;3.326;2024-03-08T13:03:35;20.30;86.60
44990;DHT22;30723;51.206;3.326;2024-03-08T13:06:05;20.00;84.30
44990;DHT22;30723;51.206;3.326;2024-03-08T13:08:35;20.00;85.60
44990;DHT22;30723;51.206;3.326;2024-03-08T13:11:05;20.40;84.90
44990;DHT22;30723;51.206;3.326;2024-03-08T13:13:33;19.70;84.80
44990;DHT22;30723;51.206;3.326;2024-03-08T13:16:04;19.30;85.80
44990;DHT22;30723;51.206;3.326;2024-03-08T13:18:34;19.60;86.30
44990;DHT22;30723;51.206;3.326;2024-03-08T13:21:00;18.70;90.00
44990;DHT22;30723;51.206;3.326;2024-03-08T13:23:32;19.00;91.80
44990;DHT22;30723;51.206;3.326;2024-03-08T13:25:59;19.20;92.00
44990;DHT22;30723;51.206;3.326;2024-03-08T13:28:25;19.40;86.50
44990;DHT22;30723;51.206;3.326;2024-03-08T13:30:55;19.90;86.90
44990;DHT22;30723;51.206;3.326;2024-03-08T13:33:23;19.80;84.90
44990;DHT22;30723;51.206;3.326;2024-03-08T13:35:49;19.70;86.70
44990;DHT22;30723;51.206;3.326;2024-03-08T13:38:16;19.50;89.30
44990;DHT22;30723;51.206;3.326;2024-03-08T13:40:46;19.70;89.10
44990;DHT22;30723;51.206;3.326;2024-03-08T13:43:12;20.00;88.20
44990;DHT22;30723;51.206;3.326;2024-03-08T13:45:38;20.10;84.90
44990;DHT22;30723;51.206;3.326;2024-03-08T13:48:04;19.90;84.60
44990;DHT22;30723;51.206;3.326;2024-03-08T13:50:31;19.70;87.60
44990;DHT22;30723;51.206;3.326;2024-03-08T13:52:56;20.10;84.60
44990;DHT22;30723;51.206;3.326;2024-03-08T13:55:23;21.00;84.90
44990;DHT22;30723;51.206;3.326;2024-03-08T13:57:49;20.90;80.70
44990;DHT22;30723;51.206;3.326;2024-03-08T14:00:17;21.10;80.60
44990;DHT22;30723;51.206;3.326;2024-03-08T14:02:43;20.90;79.60
44990;DHT22;30723;51.206;3.326;2024-03-08T14:05:08;19.20;85.20
44990;DHT22;30723;51.206;3.326;2024-03-08T14:07:35;19.40;85.60
44990;DHT22;30723;51.206;3.326;2024-03-08T14:10:01;19.60;86.60
44990;DHT22;30723;51.206;3.326;2024-03-08T14:12:27;19.30;86.60
44990;DHT22;30723;51.206;3.326;2024-03-08T14:14:53;19.10;86.80
44990;DHT22;30723;51.206;3.326;2024-03-08T14:17:19;18.80;87.00
44990;DHT22;30723;51.206;3.326;2024-03-08T14:19:45;18.50;89.40
44990;DHT22;30723;51.206;3.326;2024-03-08T14:22:10;19.10;90.20
44990;DHT22;30723;51.206;3.326;2024-03-08T14:24:42;19.40;86.60
44990;DHT22;30723;51.206;3.326;2024-03-08T14:27:09;19.50;85.70
44990;DHT22;30723;51.206;3.326;2024-03-08T14:29:35;19.60;83.30
44990;DHT22;30723;51.206;3.326;2024-03-08T14:32:02;20.30;84.50
44990;DHT22;30723;51.206;3.326;2024-03-08T14:34:29;19.90;83.10
44990;DHT22;30723;51.206;3.326;2024-03-08T14:36:56;20.00;85.70
44990;DHT22;30723;51.206;3.326;2024-03-08T14:39:22;19.90;81.50
44990;DHT22;30723;51.206;3.326;2024-03-08T14:41:52;19.80;88.90
44990;DHT22;30723;51.206;3.326;2024-03-08T14:44:20;19.30;86.20
44990;DHT22;30723;51.206;3.326;2024-03-08T14:46:46;19.20;85.90
44990;DHT22;30723;51.206;3.326;2024-03-08T14:49:12;19.00;83.10
44990;DHT22;30723;51.206;3.326;2024-03-08T14:51:38;18.70;84.40
44990;DHT22;30723;51.206;3.326;2024-03-08T14:54:04;18.80;85.80
44990;DHT22;30723;51.206;3.326;2024-03-08T14:56:36;19.10;85.10
44990;DHT22;30723;51.206;3.326;2024-03-08T14:59:02;19.20;86.60
44990;DHT22;30723;51.206;3.326;2024-03-08T15:01:30;19.30;86.10
44990;DHT22;30723;51.206;3.326;2024-03-08T15:03:58;19.30;85.40
44990;DHT22;30723;51.206;3.326;2024-03-08T15:06:37;19.00;85.40
44990;DHT22;30723;51.206;3.326;2024-03-08T15:09:07;19.20;85.30
44990;DHT22;30723;51.206;3.326;2024-03-08T15:11:41;19.20;86.40
44990;DHT22;30723;51.206;3.326;2024-03-08T15:14:08;18.60;83.90
44990;DHT22;30723;51.206;3.326;2024-03-08T15:16:40;19.00;84.50
44990;DHT22;30723;51.206;3.326;2024-03-08T15:19:07;18.50;86.40
44990;DHT22;30723;51.206;3.326;2024-03-08T15:21:33;18.50;87.80
44990;DHT22;30723;51.206;3.326;2024-03-08T15:24:03;18.20;88.30
44990;DHT22;30723;51.206;3.326;2024-03-08T15:26:30;18.00;90.10
44990;DHT22;30723;51.206;3.326;2024-03-08T15:28:57;17.80;88.80
44990;DHT22;30723;51.206;3.326;2024-03-08T15:31:23;18.10;92.20
44990;DHT22;30723;51.206;3.326;2024-03-08T15:33:50;18.10;91.80
44990;DHT22;30723;51.206;3.326;2024-03-08T15:36:32;18.60;90.50
44990;DHT22;30723;51.206;3.326;2024-03-08T15:38:59;17.70;91.40
44990;DHT22;30723;51.206;3.326;2024-03-08T15:41:25;17.30;92.40
44990;DHT22;30723;51.206;3.326;2024-03-08T15:43:55;16.90;92.70
44990;DHT22;30723;51.206;3.326;2024-03-08T15:46:22;16.90;94.70
44990;DHT22;30723;51.206;3.326;2024-03-08T15:48:48;16.20;95.90
44990;DHT22;30723;51.206;3.326;2024-03-08T15:51:15;15.60;96.80
44990;DHT22;30723;51.206;3.326;2024-03-08T15:53:43;15.30;98.80